Terminal Aerodrome Forecast
Issued by NWS

Current Version | Previous Version | Graphics & Text | Print | Product List | Glossary On
Versions: 1 2 3 4 5 6 7 8 9 10 11 12 13 14 15 16 17 18 19 20 21 22 23 24
000
FTUS41 KRLX 020520
TAFCKB
TAF
KCKB 020520Z 0206/0306 00000KT 3SM BR BKN250
      TEMPO 0209/0212 1SM BR SCT001
     FM021300 00000KT 5SM BR SCT040
     FM021400 00000KT P6SM SCT035
     FM022000 32004KT P6SM VCTS BKN045CB
     FM030200 00000KT 5SM BR BKN035=

USA.gov is the U.S. government's official web portal to all federal, state and local government web resources and services.